EZS1594 EGNT-LSGG
Flight info
| Callsign | EZS1594 |
|---|---|
| Flight time | N/A |
| Altitude | 35000 |
| Route | GIRLI P18 GASKO P16 RIBEL UP16 CROFT UL612 HON DCT XAMAB UL612 VEULE/N0459F310 DCT PEKIM DCT PILUL/N0444F270 DCT PIMUP DCT PIXIS DCT PIBAT/N0418F230 DCT LUSAR |
| Aircraft | A320/M-SDE3FGHIRWY/LB1 |
Departure
| Time | 2026-05-07 19:36 |
|---|---|
| Airport | Newcastle International Airport (EGNT) |
Arrival
| Time | N/A |
|---|---|
| Airport | Geneva International Airport (LSGG) |
| Time | Latitude | Longitude | Altitude | Speed | Heading |
|---|---|---|---|---|---|
| 2026-05-07 19:01 | 55.03735 | -1.70761 | 268 ft | 0 kts | 184° |
| 2026-05-07 19:19 | 55.03737 | -1.70760 | 267 ft | 2 kts | 184° |
| 2026-05-07 19:19 | 55.03763 | -1.70757 | 267 ft | 4 kts | 184° |
| 2026-05-07 19:20 | 55.03784 | -1.70755 | 267 ft | 3 kts | 181° |
| 2026-05-07 19:20 | 55.03809 | -1.70765 | 267 ft | 4 kts | 158° |
| 2026-05-07 19:20 | 55.03816 | -1.70770 | 267 ft | 0 kts | 160° |
| 2026-05-07 19:23 | 55.03806 | -1.70735 | 267 ft | 9 kts | 92° |
| 2026-05-07 19:23 | 55.03803 | -1.70597 | 267 ft | 11 kts | 93° |
| 2026-05-07 19:23 | 55.03797 | -1.70469 | 267 ft | 10 kts | 98° |
| 2026-05-07 19:23 | 55.03779 | -1.70317 | 266 ft | 16 kts | 94° |
| 2026-05-07 19:24 | 55.03772 | -1.70074 | 262 ft | 24 kts | 90° |
| 2026-05-07 19:24 | 55.03790 | -1.69762 | 258 ft | 27 kts | 79° |
| 2026-05-07 19:24 | 55.03852 | -1.69437 | 255 ft | 29 kts | 65° |
| 2026-05-07 19:24 | 55.03938 | -1.69115 | 252 ft | 28 kts | 65° |
| 2026-05-07 19:25 | 55.04021 | -1.68801 | 250 ft | 28 kts | 65° |
| 2026-05-07 19:25 | 55.04086 | -1.68557 | 249 ft | 21 kts | 65° |
| 2026-05-07 19:25 | 55.04150 | -1.68314 | 248 ft | 23 kts | 65° |
| 2026-05-07 19:25 | 55.04200 | -1.68125 | 247 ft | 13 kts | 65° |
| 2026-05-07 19:26 | 55.04236 | -1.67991 | 247 ft | 11 kts | 65° |
| 2026-05-07 19:26 | 55.04265 | -1.67881 | 247 ft | 1 kts | 65° |
| 2026-05-07 19:26 | 55.04267 | -1.67875 | 247 ft | 1 kts | 65° |
| 2026-05-07 19:26 | 55.04273 | -1.67853 | 225 ft | 8 kts | 65° |
| 2026-05-07 19:27 | 55.04310 | -1.67711 | 245 ft | 0 kts | 65° |
| 2026-05-07 19:27 | 55.04311 | -1.67708 | 245 ft | 0 kts | 65° |
| 2026-05-07 19:27 | 55.04312 | -1.67703 | 245 ft | 1 kts | 65° |
| 2026-05-07 19:27 | 55.04316 | -1.67690 | 244 ft | 2 kts | 65° |
| 2026-05-07 19:28 | 55.04322 | -1.67668 | 244 ft | 2 kts | 65° |
| 2026-05-07 19:28 | 55.04326 | -1.67654 | 244 ft | 0 kts | 65° |
| 2026-05-07 19:28 | 55.04326 | -1.67653 | 244 ft | 0 kts | 65° |
| 2026-05-07 19:28 | 55.04327 | -1.67646 | 244 ft | 3 kts | 67° |
| 2026-05-07 19:29 | 55.04335 | -1.67577 | 243 ft | 9 kts | 92° |
| 2026-05-07 19:29 | 55.04329 | -1.67455 | 241 ft | 8 kts | 95° |
| 2026-05-07 19:29 | 55.04316 | -1.67403 | 241 ft | 0 kts | 137° |
| 2026-05-07 19:31 | 55.04311 | -1.67396 | 241 ft | 4 kts | 137° |
| 2026-05-07 19:31 | 55.04265 | -1.67362 | 241 ft | 10 kts | 168° |
| 2026-05-07 19:32 | 55.04210 | -1.67405 | 242 ft | 9 kts | 239° |
| 2026-05-07 19:32 | 55.04202 | -1.67434 | 242 ft | 0 kts | 245° |
| 2026-05-07 19:35 | 55.04175 | -1.67537 | 244 ft | 36 kts | 245° |
| 2026-05-07 19:35 | 55.03955 | -1.68361 | 249 ft | 110 kts | 245° |
| 2026-05-07 19:35 | 55.03532 | -1.69865 | 335 ft | 156 kts | 241° |
| 2026-05-07 19:36 | 55.03054 | -1.71593 | 975 ft | 160 kts | 244° |
| 2026-05-07 19:36 | 55.02589 | -1.73375 | 1771 ft | 161 kts | 240° |
| 2026-05-07 19:36 | 55.02119 | -1.75153 | 2341 ft | 167 kts | 240° |
| 2026-05-07 19:36 | 55.01582 | -1.76985 | 2875 ft | 174 kts | 230° |
| 2026-05-07 19:37 | 55.00560 | -1.78248 | 3142 ft | 195 kts | 194° |
| 2026-05-07 19:37 | 54.99138 | -1.78627 | 3504 ft | 219 kts | 188° |
| 2026-05-07 19:37 | 54.97546 | -1.78975 | 4035 ft | 238 kts | 188° |
| 2026-05-07 19:37 | 54.95885 | -1.79331 | 4871 ft | 243 kts | 188° |
| 2026-05-07 19:38 | 54.94190 | -1.79698 | 5704 ft | 248 kts | 189° |
| 2026-05-07 19:38 | 54.92463 | -1.80078 | 6533 ft | 253 kts | 189° |
| 2026-05-07 19:38 | 54.90698 | -1.80469 | 7331 ft | 258 kts | 189° |
| 2026-05-07 19:38 | 54.88907 | -1.80870 | 8160 ft | 261 kts | 189° |
| 2026-05-07 19:39 | 54.87093 | -1.81278 | 8969 ft | 265 kts | 190° |
| 2026-05-07 19:39 | 54.85248 | -1.81693 | 9801 ft | 269 kts | 190° |
| 2026-05-07 19:39 | 54.83375 | -1.82115 | 10439 ft | 278 kts | 189° |
| 2026-05-07 19:39 | 54.81394 | -1.82565 | 10674 ft | 301 kts | 189° |
| 2026-05-07 19:40 | 54.79243 | -1.83053 | 10862 ft | 324 kts | 189° |
| 2026-05-07 19:40 | 54.76932 | -1.83573 | 11136 ft | 341 kts | 189° |
| 2026-05-07 19:40 | 54.74556 | -1.84102 | 11748 ft | 347 kts | 188° |
| 2026-05-07 19:40 | 54.72149 | -1.84634 | 12421 ft | 351 kts | 188° |
| 2026-05-07 19:41 | 54.69719 | -1.85174 | 13089 ft | 354 kts | 188° |
| 2026-05-07 19:41 | 54.67253 | -1.85720 | 13775 ft | 358 kts | 188° |
| 2026-05-07 19:41 | 54.64769 | -1.86272 | 14377 ft | 361 kts | 188° |
| 2026-05-07 19:41 | 54.62262 | -1.86832 | 14987 ft | 364 kts | 188° |
| 2026-05-07 19:42 | 54.59771 | -1.87381 | 15580 ft | 367 kts | 188° |
| 2026-05-07 19:42 | 54.57222 | -1.87941 | 16189 ft | 370 kts | 188° |
| 2026-05-07 19:42 | 54.54653 | -1.88512 | 16785 ft | 373 kts | 188° |
| 2026-05-07 19:42 | 54.52065 | -1.89086 | 17381 ft | 376 kts | 188° |
| 2026-05-07 19:43 | 54.49444 | -1.89668 | 17974 ft | 380 kts | 188° |
| 2026-05-07 19:43 | 54.46803 | -1.90252 | 18495 ft | 384 kts | 188° |
| 2026-05-07 19:43 | 54.44175 | -1.90832 | 18950 ft | 388 kts | 188° |
| 2026-05-07 19:43 | 54.41487 | -1.91425 | 19441 ft | 391 kts | 188° |
| 2026-05-07 19:44 | 54.38776 | -1.92018 | 19916 ft | 394 kts | 188° |
| 2026-05-07 19:44 | 54.36044 | -1.92617 | 20390 ft | 397 kts | 188° |
| 2026-05-07 19:44 | 54.33297 | -1.93222 | 20839 ft | 400 kts | 188° |
| 2026-05-07 19:44 | 54.30531 | -1.93833 | 21288 ft | 403 kts | 188° |
| 2026-05-07 19:45 | 54.27732 | -1.94453 | 21720 ft | 405 kts | 189° |
| 2026-05-07 19:45 | 54.24973 | -1.95484 | 22146 ft | 407 kts | 198° |
| 2026-05-07 19:45 | 54.22342 | -1.97316 | 22549 ft | 410 kts | 207° |
| 2026-05-07 19:45 | 54.19922 | -1.99913 | 22918 ft | 413 kts | 217° |
| 2026-05-07 19:46 | 54.17765 | -2.03181 | 23298 ft | 416 kts | 223° |
| 2026-05-07 19:46 | 54.15655 | -2.06600 | 23677 ft | 419 kts | 223° |
| 2026-05-07 19:46 | 54.13558 | -2.09968 | 23998 ft | 421 kts | 223° |
| 2026-05-07 19:46 | 54.11414 | -2.13388 | 24331 ft | 422 kts | 223° |
| 2026-05-07 19:47 | 54.09260 | -2.16810 | 24680 ft | 423 kts | 223° |
| 2026-05-07 19:47 | 54.07098 | -2.20239 | 24993 ft | 425 kts | 223° |
| 2026-05-07 19:47 | 54.04931 | -2.23679 | 25306 ft | 427 kts | 223° |
| 2026-05-07 19:47 | 54.02668 | -2.26988 | 25602 ft | 429 kts | 216° |
| 2026-05-07 19:48 | 54.00135 | -2.29696 | 25889 ft | 431 kts | 207° |
| 2026-05-07 19:48 | 53.97378 | -2.31719 | 26171 ft | 433 kts | 201° |
| 2026-05-07 19:48 | 53.94550 | -2.33527 | 26424 ft | 435 kts | 201° |
| 2026-05-07 19:48 | 53.91715 | -2.35344 | 26681 ft | 437 kts | 201° |
| 2026-05-07 19:49 | 53.88858 | -2.37180 | 26939 ft | 438 kts | 201° |
| 2026-05-07 19:49 | 53.86037 | -2.38989 | 27186 ft | 440 kts | 201° |
| 2026-05-07 19:49 | 53.83168 | -2.40830 | 27421 ft | 441 kts | 201° |
| 2026-05-07 19:49 | 53.80287 | -2.42677 | 27666 ft | 443 kts | 201° |
| 2026-05-07 19:50 | 53.77412 | -2.44517 | 27991 ft | 442 kts | 201° |
| 2026-05-07 19:50 | 53.74541 | -2.46349 | 28329 ft | 441 kts | 201° |
| 2026-05-07 19:50 | 53.71671 | -2.48178 | 28673 ft | 440 kts | 201° |
| 2026-05-07 19:50 | 53.68804 | -2.49990 | 28975 ft | 440 kts | 200° |
| 2026-05-07 19:51 | 53.65835 | -2.51264 | 29297 ft | 441 kts | 190° |
| 2026-05-07 19:51 | 53.62772 | -2.51645 | 29621 ft | 442 kts | 180° |
| 2026-05-07 19:51 | 53.59700 | -2.51091 | 29963 ft | 444 kts | 170° |
| 2026-05-07 19:51 | 53.56740 | -2.49631 | 30283 ft | 446 kts | 160° |
| 2026-05-07 19:52 | 53.53914 | -2.47622 | 30549 ft | 446 kts | 159° |
| 2026-05-07 19:52 | 53.51053 | -2.45593 | 30825 ft | 445 kts | 159° |
| 2026-05-07 19:52 | 53.48192 | -2.43584 | 31109 ft | 445 kts | 159° |
| 2026-05-07 19:52 | 53.45338 | -2.41591 | 31392 ft | 444 kts | 159° |
| 2026-05-07 19:53 | 53.42483 | -2.39597 | 31675 ft | 444 kts | 159° |
| 2026-05-07 19:53 | 53.39636 | -2.37605 | 31958 ft | 443 kts | 159° |
| 2026-05-07 19:53 | 53.36792 | -2.35608 | 32243 ft | 442 kts | 159° |
| 2026-05-07 19:53 | 53.33953 | -2.33610 | 32531 ft | 442 kts | 159° |
| 2026-05-07 19:54 | 53.31153 | -2.31639 | 32807 ft | 441 kts | 159° |
| 2026-05-07 19:54 | 53.28320 | -2.29649 | 33088 ft | 441 kts | 159° |
| 2026-05-07 19:54 | 53.25488 | -2.27668 | 33371 ft | 440 kts | 159° |
| 2026-05-07 19:54 | 53.22667 | -2.25700 | 33646 ft | 440 kts | 160° |
| 2026-05-07 19:55 | 53.19837 | -2.23730 | 33885 ft | 441 kts | 160° |
| 2026-05-07 19:55 | 53.17003 | -2.21766 | 34121 ft | 441 kts | 160° |
| 2026-05-07 19:55 | 53.14178 | -2.19806 | 34351 ft | 441 kts | 160° |
| 2026-05-07 19:55 | 53.11346 | -2.17839 | 34573 ft | 441 kts | 160° |
| 2026-05-07 19:56 | 53.08516 | -2.15873 | 34784 ft | 441 kts | 160° |
| 2026-05-07 19:56 | 53.05677 | -2.13907 | 34974 ft | 441 kts | 160° |
| 2026-05-07 19:56 | 52.99972 | -2.09973 | 35043 ft | 445 kts | 160° |
| 2026-05-07 19:57 | 52.94258 | -2.06054 | 35044 ft | 447 kts | 160° |
| 2026-05-07 19:57 | 52.88495 | -2.02105 | 35046 ft | 448 kts | 160° |
| 2026-05-07 19:58 | 52.83714 | -1.98833 | 35046 ft | 448 kts | 160° |
| 2026-05-07 19:58 | 52.77955 | -1.94891 | 35049 ft | 448 kts | 160° |
| 2026-05-07 19:59 | 52.72193 | -1.90961 | 35036 ft | 448 kts | 160° |
| 2026-05-07 19:59 | 52.66428 | -1.87055 | 35042 ft | 448 kts | 160° |
| 2026-05-07 20:00 | 52.60628 | -1.83139 | 35058 ft | 453 kts | 160° |
| 2026-05-07 20:00 | 52.54775 | -1.79194 | 35056 ft | 459 kts | 160° |
| 2026-05-07 20:01 | 52.48865 | -1.75212 | 35054 ft | 464 kts | 160° |
| 2026-05-07 20:01 | 52.42868 | -1.71192 | 35057 ft | 466 kts | 160° |
| 2026-05-07 20:02 | 52.36861 | -1.67177 | 35057 ft | 466 kts | 160° |
| 2026-05-07 20:02 | 52.31168 | -1.62108 | 35055 ft | 469 kts | 153° |
| 2026-05-07 20:03 | 52.25514 | -1.56781 | 35066 ft | 469 kts | 153° |
| 2026-05-07 20:03 | 52.19846 | -1.51480 | 35081 ft | 469 kts | 153° |
| 2026-05-07 20:04 | 52.14184 | -1.46187 | 35080 ft | 469 kts | 153° |
| 2026-05-07 20:04 | 52.08521 | -1.40899 | 35075 ft | 469 kts | 153° |
| 2026-05-07 20:05 | 52.02847 | -1.35614 | 35035 ft | 470 kts | 153° |
| 2026-05-07 20:05 | 51.97180 | -1.30346 | 35052 ft | 469 kts | 153° |
| 2026-05-07 20:06 | 51.91553 | -1.25122 | 35057 ft | 464 kts | 153° |
| 2026-05-07 20:06 | 51.85986 | -1.19962 | 35058 ft | 464 kts | 153° |
| 2026-05-07 20:07 | 51.80370 | -1.14801 | 35054 ft | 463 kts | 153° |
| 2026-05-07 20:07 | 51.74797 | -1.09694 | 35058 ft | 462 kts | 153° |
| 2026-05-07 20:08 | 51.69249 | -1.04609 | 35063 ft | 462 kts | 153° |
| 2026-05-07 20:08 | 51.63644 | -0.99484 | 35062 ft | 462 kts | 153° |
| 2026-05-07 20:09 | 51.58071 | -0.94411 | 35051 ft | 463 kts | 153° |
| 2026-05-07 20:10 | 51.49671 | -0.86800 | 35059 ft | 463 kts | 153° |
| 2026-05-07 20:10 | 51.44053 | -0.81720 | 35068 ft | 463 kts | 153° |
| 2026-05-07 20:11 | 51.38424 | -0.76642 | 35078 ft | 463 kts | 153° |
| 2026-05-07 20:11 | 51.32801 | -0.71585 | 35081 ft | 463 kts | 153° |
| 2026-05-07 20:12 | 51.27214 | -0.66578 | 35096 ft | 463 kts | 153° |
| 2026-05-07 20:12 | 51.21581 | -0.61553 | 35098 ft | 462 kts | 154° |
| 2026-05-07 20:13 | 51.15959 | -0.56545 | 35097 ft | 462 kts | 154° |
| 2026-05-07 20:13 | 51.10376 | -0.51583 | 35095 ft | 462 kts | 154° |
| 2026-05-07 20:14 | 51.04754 | -0.46604 | 35098 ft | 462 kts | 154° |
| 2026-05-07 20:14 | 50.99427 | -0.41900 | 35077 ft | 462 kts | 154° |
| 2026-05-07 20:15 | 50.93807 | -0.36948 | 35070 ft | 461 kts | 154° |
| 2026-05-07 20:15 | 50.88170 | -0.31993 | 35069 ft | 461 kts | 154° |
| 2026-05-07 20:16 | 50.82596 | -0.27105 | 35068 ft | 461 kts | 154° |
| 2026-05-07 20:16 | 50.76980 | -0.22197 | 35071 ft | 461 kts | 154° |
| 2026-05-07 20:17 | 50.71368 | -0.17309 | 35074 ft | 460 kts | 154° |
| 2026-05-07 20:17 | 50.65751 | -0.12429 | 35081 ft | 460 kts | 154° |
| 2026-05-07 20:18 | 50.60129 | -0.07560 | 35084 ft | 460 kts | 154° |
| 2026-05-07 20:18 | 50.54525 | -0.02707 | 35091 ft | 460 kts | 154° |
| 2026-05-07 20:19 | 50.48948 | 0.02102 | 35080 ft | 460 kts | 154° |
| 2026-05-07 20:19 | 50.43316 | 0.06937 | 35079 ft | 460 kts | 154° |
| 2026-05-07 20:20 | 50.37701 | 0.11753 | 35076 ft | 460 kts | 154° |
| 2026-05-07 20:20 | 50.32277 | 0.16953 | 35086 ft | 463 kts | 144° |
| 2026-05-07 20:21 | 50.27252 | 0.23297 | 35088 ft | 463 kts | 143° |
| 2026-05-07 20:21 | 50.22255 | 0.29655 | 35088 ft | 464 kts | 143° |
| 2026-05-07 20:22 | 50.17251 | 0.36003 | 35082 ft | 463 kts | 143° |
| 2026-05-07 20:22 | 50.12237 | 0.42340 | 35084 ft | 463 kts | 143° |
| 2026-05-07 20:23 | 50.07260 | 0.48597 | 35081 ft | 463 kts | 143° |
| 2026-05-07 20:23 | 50.02234 | 0.54893 | 35081 ft | 464 kts | 144° |
| 2026-05-07 20:24 | 49.97194 | 0.61196 | 35079 ft | 464 kts | 144° |
| 2026-05-07 20:24 | 49.92156 | 0.67493 | 35073 ft | 464 kts | 144° |
| 2026-05-07 20:25 | 49.87118 | 0.73772 | 35076 ft | 464 kts | 144° |
| 2026-05-07 20:25 | 49.82118 | 0.79982 | 35079 ft | 464 kts | 144° |
| 2026-05-07 20:26 | 49.77072 | 0.86226 | 35077 ft | 464 kts | 144° |
| 2026-05-07 20:26 | 49.72039 | 0.92443 | 35063 ft | 464 kts | 144° |
| 2026-05-07 20:27 | 49.66973 | 0.98677 | 35063 ft | 464 kts | 144° |
| 2026-05-07 20:27 | 49.61964 | 1.04825 | 35054 ft | 454 kts | 144° |
| 2026-05-07 20:28 | 49.57105 | 1.10788 | 35058 ft | 442 kts | 144° |
| 2026-05-07 20:28 | 49.52300 | 1.16667 | 35058 ft | 441 kts | 144° |
| 2026-05-07 20:29 | 49.47485 | 1.22506 | 35057 ft | 441 kts | 144° |
| 2026-05-07 20:29 | 49.42670 | 1.28340 | 35057 ft | 441 kts | 144° |
| 2026-05-07 20:30 | 49.37850 | 1.34188 | 35046 ft | 441 kts | 144° |
| 2026-05-07 20:30 | 49.33054 | 1.39990 | 35045 ft | 441 kts | 144° |
| 2026-05-07 20:31 | 49.28203 | 1.45832 | 35042 ft | 442 kts | 145° |
| 2026-05-07 20:31 | 49.23365 | 1.51656 | 35044 ft | 442 kts | 145° |
| 2026-05-07 20:32 | 49.18513 | 1.57472 | 35048 ft | 443 kts | 145° |
| 2026-05-07 20:32 | 49.13660 | 1.63285 | 35053 ft | 443 kts | 145° |
| 2026-05-07 20:33 | 49.08844 | 1.69034 | 35059 ft | 443 kts | 145° |
| 2026-05-07 20:33 | 49.03982 | 1.74816 | 35047 ft | 443 kts | 145° |
| 2026-05-07 20:34 | 48.99108 | 1.80582 | 35041 ft | 444 kts | 146° |
| 2026-05-07 20:34 | 48.94240 | 1.86345 | 35045 ft | 444 kts | 145° |
| 2026-05-07 20:35 | 48.89358 | 1.92123 | 35050 ft | 445 kts | 145° |
| 2026-05-07 20:35 | 48.84466 | 1.97894 | 35053 ft | 445 kts | 146° |
| 2026-05-07 20:36 | 48.79570 | 2.03649 | 35055 ft | 445 kts | 146° |
| 2026-05-07 20:36 | 48.74675 | 2.09389 | 35058 ft | 445 kts | 146° |
| 2026-05-07 20:37 | 48.69802 | 2.15076 | 35062 ft | 445 kts | 146° |
| 2026-05-07 20:37 | 48.64894 | 2.20793 | 35056 ft | 445 kts | 146° |
| 2026-05-07 20:38 | 48.59984 | 2.26506 | 35067 ft | 446 kts | 146° |
| 2026-05-07 20:38 | 48.55093 | 2.32193 | 35066 ft | 446 kts | 146° |
| 2026-05-07 20:39 | 48.50163 | 2.37898 | 35047 ft | 446 kts | 146° |
| 2026-05-07 20:39 | 48.45225 | 2.43595 | 35053 ft | 446 kts | 146° |
| 2026-05-07 20:40 | 48.40326 | 2.49238 | 35043 ft | 447 kts | 146° |
| 2026-05-07 20:40 | 48.35386 | 2.54917 | 35046 ft | 447 kts | 146° |
| 2026-05-07 20:41 | 48.30436 | 2.60592 | 35037 ft | 447 kts | 146° |
| 2026-05-07 20:41 | 48.25470 | 2.66265 | 35038 ft | 448 kts | 146° |
| 2026-05-07 20:42 | 48.20529 | 2.71904 | 35038 ft | 448 kts | 146° |
| 2026-05-07 20:42 | 48.15557 | 2.77566 | 35046 ft | 449 kts | 147° |
| 2026-05-07 20:43 | 48.10573 | 2.83215 | 35041 ft | 449 kts | 147° |
| 2026-05-07 20:43 | 48.05585 | 2.88853 | 35046 ft | 449 kts | 147° |
| 2026-05-07 20:44 | 48.00614 | 2.94458 | 35050 ft | 449 kts | 147° |
| 2026-05-07 20:44 | 47.95623 | 3.00087 | 35023 ft | 449 kts | 147° |
| 2026-05-07 20:45 | 47.90623 | 3.05715 | 35034 ft | 450 kts | 147° |
| 2026-05-07 20:45 | 47.85619 | 3.11325 | 35041 ft | 450 kts | 147° |
| 2026-05-07 20:46 | 47.80645 | 3.16887 | 35048 ft | 450 kts | 147° |
| 2026-05-07 20:46 | 47.75633 | 3.22472 | 35036 ft | 450 kts | 147° |
| 2026-05-07 20:47 | 47.71464 | 3.27113 | 35049 ft | 450 kts | 147° |
| 2026-05-07 20:47 | 47.66461 | 3.32677 | 35049 ft | 449 kts | 147° |
| 2026-05-07 20:48 | 47.61442 | 3.38241 | 35041 ft | 450 kts | 147° |
| 2026-05-07 20:48 | 47.56416 | 3.43781 | 35041 ft | 450 kts | 147° |
| 2026-05-07 20:49 | 47.51417 | 3.49279 | 35035 ft | 450 kts | 147° |
| 2026-05-07 20:49 | 47.46342 | 3.54856 | 34849 ft | 457 kts | 148° |
| 2026-05-07 20:49 | 47.43781 | 3.57658 | 34617 ft | 459 kts | 148° |
| 2026-05-07 20:50 | 47.41205 | 3.60475 | 34373 ft | 460 kts | 148° |
| 2026-05-07 20:50 | 47.38637 | 3.63285 | 34137 ft | 460 kts | 148° |
| 2026-05-07 20:50 | 47.36067 | 3.66098 | 33882 ft | 461 kts | 148° |
| 2026-05-07 20:50 | 47.33520 | 3.68886 | 33614 ft | 461 kts | 147° |
| 2026-05-07 20:51 | 47.30952 | 3.71691 | 33319 ft | 460 kts | 147° |
| 2026-05-07 20:51 | 47.28377 | 3.74493 | 33044 ft | 460 kts | 148° |
| 2026-05-07 20:51 | 47.25799 | 3.77292 | 32780 ft | 460 kts | 147° |
| 2026-05-07 20:51 | 47.23215 | 3.80096 | 32517 ft | 460 kts | 147° |
| 2026-05-07 20:52 | 47.20641 | 3.82887 | 32252 ft | 460 kts | 147° |
| 2026-05-07 20:52 | 47.18061 | 3.85684 | 31992 ft | 461 kts | 147° |
| 2026-05-07 20:52 | 47.15473 | 3.88486 | 31730 ft | 461 kts | 147° |
| 2026-05-07 20:52 | 47.12889 | 3.91282 | 31475 ft | 461 kts | 147° |
| 2026-05-07 20:53 | 47.10306 | 3.94071 | 31211 ft | 462 kts | 147° |
| 2026-05-07 20:53 | 47.07713 | 3.96865 | 30962 ft | 462 kts | 147° |
| 2026-05-07 20:53 | 47.05118 | 3.99656 | 30710 ft | 463 kts | 147° |
| 2026-05-07 20:53 | 47.02556 | 4.02411 | 30468 ft | 463 kts | 147° |
| 2026-05-07 20:54 | 46.99962 | 4.05199 | 30224 ft | 463 kts | 147° |
| 2026-05-07 20:54 | 46.97356 | 4.07997 | 29964 ft | 464 kts | 147° |
| 2026-05-07 20:54 | 46.94753 | 4.10787 | 29608 ft | 464 kts | 147° |
| 2026-05-07 20:54 | 46.92147 | 4.13577 | 28381 ft | 467 kts | 147° |